sensor_id;sensor_type;location;lat;lon;timestamp;P1;durP1;ratioP1;P2;durP2;ratioP2
23146;SDS011;11742;53.532;-1.478;2023-12-20T00:00:02;6.60;;;1.63;;
23146;SDS011;11742;53.532;-1.478;2023-12-20T00:02:46;4.07;;;1.50;;
23146;SDS011;11742;53.532;-1.478;2023-12-20T00:05:31;4.22;;;1.42;;
23146;SDS011;11742;53.532;-1.478;2023-12-20T00:08:16;3.47;;;1.83;;
23146;SDS011;11742;53.532;-1.478;2023-12-20T00:11:01;3.15;;;1.20;;
23146;SDS011;11742;53.532;-1.478;2023-12-20T00:13:45;6.18;;;1.40;;
23146;SDS011;11742;53.532;-1.478;2023-12-20T00:16:30;4.85;;;1.33;;
23146;SDS011;11742;53.532;-1.478;2023-12-20T00:19:15;5.53;;;1.63;;
23146;SDS011;11742;53.532;-1.478;2023-12-20T00:21:59;5.40;;;1.55;;
23146;SDS011;11742;53.532;-1.478;2023-12-20T00:24:44;5.05;;;1.25;;
23146;SDS011;11742;53.532;-1.478;2023-12-20T00:27:28;5.07;;;1.55;;
23146;SDS011;11742;53.532;-1.478;2023-12-20T00:30:13;4.20;;;1.38;;
23146;SDS011;11742;53.532;-1.478;2023-12-20T00:32:58;5.35;;;1.40;;
23146;SDS011;11742;53.532;-1.478;2023-12-20T00:35:42;4.82;;;1.33;;
23146;SDS011;11742;53.532;-1.478;2023-12-20T00:38:27;5.55;;;1.48;;
23146;SDS011;11742;53.532;-1.478;2023-12-20T00:41:11;2.90;;;1.40;;
23146;SDS011;11742;53.532;-1.478;2023-12-20T00:43:55;5.25;;;1.92;;
23146;SDS011;11742;53.532;-1.478;2023-12-20T00:46:40;4.38;;;1.63;;
23146;SDS011;11742;53.532;-1.478;2023-12-20T00:49:24;7.13;;;1.88;;
23146;SDS011;11742;53.532;-1.478;2023-12-20T00:52:08;5.20;;;1.50;;
23146;SDS011;11742;53.532;-1.478;2023-12-20T00:54:53;6.78;;;1.73;;
23146;SDS011;11742;53.532;-1.478;2023-12-20T00:57:37;4.50;;;1.48;;
23146;SDS011;11742;53.532;-1.478;2023-12-20T01:00:21;4.50;;;1.50;;
23146;SDS011;11742;53.532;-1.478;2023-12-20T01:03:05;8.00;;;1.92;;
23146;SDS011;11742;53.532;-1.478;2023-12-20T01:05:49;5.30;;;1.80;;
23146;SDS011;11742;53.532;-1.478;2023-12-20T01:08:33;8.73;;;1.75;;
23146;SDS011;11742;53.532;-1.478;2023-12-20T01:11:19;4.43;;;1.23;;
23146;SDS011;11742;53.532;-1.478;2023-12-20T01:14:03;5.38;;;1.70;;
23146;SDS011;11742;53.532;-1.478;2023-12-20T01:16:47;6.95;;;1.67;;
23146;SDS011;11742;53.532;-1.478;2023-12-20T01:19:31;3.38;;;1.35;;
23146;SDS011;11742;53.532;-1.478;2023-12-20T01:22:15;4.80;;;1.55;;
23146;SDS011;11742;53.532;-1.478;2023-12-20T01:24:59;7.78;;;1.67;;
23146;SDS011;11742;53.532;-1.478;2023-12-20T01:27:44;3.80;;;1.60;;
23146;SDS011;11742;53.532;-1.478;2023-12-20T01:30:28;3.92;;;1.30;;
23146;SDS011;11742;53.532;-1.478;2023-12-20T01:33:12;5.47;;;1.80;;
23146;SDS011;11742;53.532;-1.478;2023-12-20T01:35:56;7.40;;;2.13;;
23146;SDS011;11742;53.532;-1.478;2023-12-20T01:38:41;6.90;;;1.75;;
23146;SDS011;11742;53.532;-1.478;2023-12-20T01:41:25;5.13;;;1.80;;
23146;SDS011;11742;53.532;-1.478;2023-12-20T01:44:09;6.75;;;1.73;;
23146;SDS011;11742;53.532;-1.478;2023-12-20T01:46:53;3.50;;;1.50;;
23146;SDS011;11742;53.532;-1.478;2023-12-20T01:49:38;4.20;;;1.42;;
23146;SDS011;11742;53.532;-1.478;2023-12-20T01:52:23;5.72;;;1.60;;
23146;SDS011;11742;53.532;-1.478;2023-12-20T01:55:09;6.50;;;1.45;;
23146;SDS011;11742;53.532;-1.478;2023-12-20T01:57:57;4.55;;;1.48;;
23146;SDS011;11742;53.532;-1.478;2023-12-20T02:00:42;5.18;;;1.20;;
23146;SDS011;11742;53.532;-1.478;2023-12-20T02:03:26;3.75;;;1.42;;
23146;SDS011;11742;53.532;-1.478;2023-12-20T02:06:11;4.43;;;1.38;;
23146;SDS011;11742;53.532;-1.478;2023-12-20T02:08:55;4.75;;;1.40;;
23146;SDS011;11742;53.532;-1.478;2023-12-20T02:11:40;3.55;;;1.05;;
23146;SDS011;11742;53.532;-1.478;2023-12-20T02:14:25;5.53;;;1.67;;
23146;SDS011;11742;53.532;-1.478;2023-12-20T02:17:10;7.80;;;1.70;;
23146;SDS011;11742;53.532;-1.478;2023-12-20T02:19:54;4.63;;;1.50;;
23146;SDS011;11742;53.532;-1.478;2023-12-20T02:22:38;4.65;;;1.77;;
23146;SDS011;11742;53.532;-1.478;2023-12-20T02:25:22;5.05;;;1.30;;
23146;SDS011;11742;53.532;-1.478;2023-12-20T02:28:07;2.50;;;0.95;;
23146;SDS011;11742;53.532;-1.478;2023-12-20T02:30:52;6.18;;;1.38;;
23146;SDS011;11742;53.532;-1.478;2023-12-20T02:33:39;5.40;;;1.40;;
23146;SDS011;11742;53.532;-1.478;2023-12-20T02:36:25;3.80;;;1.17;;
23146;SDS011;11742;53.532;-1.478;2023-12-20T02:39:09;4.43;;;1.17;;
23146;SDS011;11742;53.532;-1.478;2023-12-20T02:41:53;4.15;;;1.15;;
23146;SDS011;11742;53.532;-1.478;2023-12-20T02:44:38;5.10;;;1.52;;
23146;SDS011;11742;53.532;-1.478;2023-12-20T02:47:22;7.35;;;1.30;;
23146;SDS011;11742;53.532;-1.478;2023-12-20T02:50:06;4.63;;;1.20;;
23146;SDS011;11742;53.532;-1.478;2023-12-20T02:52:50;2.38;;;1.00;;
23146;SDS011;11742;53.532;-1.478;2023-12-20T02:55:35;7.47;;;1.90;;
23146;SDS011;11742;53.532;-1.478;2023-12-20T02:58:19;3.85;;;1.10;;
23146;SDS011;11742;53.532;-1.478;2023-12-20T03:01:04;4.03;;;1.42;;
23146;SDS011;11742;53.532;-1.478;2023-12-20T03:03:48;4.90;;;1.15;;
23146;SDS011;11742;53.532;-1.478;2023-12-20T03:06:32;4.53;;;1.15;;
23146;SDS011;11742;53.532;-1.478;2023-12-20T03:09:16;2.92;;;1.27;;
23146;SDS011;11742;53.532;-1.478;2023-12-20T03:12:01;3.47;;;1.15;;
23146;SDS011;11742;53.532;-1.478;2023-12-20T03:14:45;3.72;;;1.05;;
23146;SDS011;11742;53.532;-1.478;2023-12-20T03:17:29;3.63;;;1.10;;
23146;SDS011;11742;53.532;-1.478;2023-12-20T03:20:13;3.80;;;1.33;;
23146;SDS011;11742;53.532;-1.478;2023-12-20T03:22:57;5.78;;;1.35;;
23146;SDS011;11742;53.532;-1.478;2023-12-20T03:25:41;4.80;;;1.17;;
23146;SDS011;11742;53.532;-1.478;2023-12-20T03:28:26;3.10;;;1.20;;
23146;SDS011;11742;53.532;-1.478;2023-12-20T03:31:11;2.75;;;1.00;;
23146;SDS011;11742;53.532;-1.478;2023-12-20T03:33:55;3.53;;;0.80;;
23146;SDS011;11742;53.532;-1.478;2023-12-20T03:36:39;4.80;;;1.08;;
23146;SDS011;11742;53.532;-1.478;2023-12-20T03:39:23;4.03;;;1.13;;
23146;SDS011;11742;53.532;-1.478;2023-12-20T03:42:08;4.78;;;1.20;;
23146;SDS011;11742;53.532;-1.478;2023-12-20T03:44:52;5.55;;;1.23;;
23146;SDS011;11742;53.532;-1.478;2023-12-20T03:47:36;5.65;;;1.25;;
23146;SDS011;11742;53.532;-1.478;2023-12-20T03:50:24;8.02;;;2.08;;
23146;SDS011;11742;53.532;-1.478;2023-12-20T03:53:08;5.63;;;1.45;;
23146;SDS011;11742;53.532;-1.478;2023-12-20T03:55:52;5.20;;;1.30;;
23146;SDS011;11742;53.532;-1.478;2023-12-20T03:58:36;4.05;;;1.17;;
23146;SDS011;11742;53.532;-1.478;2023-12-20T04:01:20;3.63;;;1.73;;
23146;SDS011;11742;53.532;-1.478;2023-12-20T04:04:04;2.03;;;0.98;;
23146;SDS011;11742;53.532;-1.478;2023-12-20T04:06:48;6.50;;;1.30;;
23146;SDS011;11742;53.532;-1.478;2023-12-20T04:09:33;3.00;;;1.45;;
23146;SDS011;11742;53.532;-1.478;2023-12-20T04:12:17;2.65;;;1.00;;
23146;SDS011;11742;53.532;-1.478;2023-12-20T04:15:01;3.88;;;1.08;;
23146;SDS011;11742;53.532;-1.478;2023-12-20T04:17:47;4.90;;;1.25;;
23146;SDS011;11742;53.532;-1.478;2023-12-20T04:20:31;4.32;;;1.48;;
23146;SDS011;11742;53.532;-1.478;2023-12-20T04:23:16;2.92;;;1.00;;
23146;SDS011;11742;53.532;-1.478;2023-12-20T04:26:00;3.00;;;1.17;;
23146;SDS011;11742;53.532;-1.478;2023-12-20T04:28:44;3.95;;;1.00;;
23146;SDS011;11742;53.532;-1.478;2023-12-20T04:31:28;2.35;;;1.00;;
23146;SDS011;11742;53.532;-1.478;2023-12-20T04:34:12;5.75;;;1.38;;
23146;SDS011;11742;53.532;-1.478;2023-12-20T04:36:56;2.25;;;1.02;;
23146;SDS011;11742;53.532;-1.478;2023-12-20T04:39:41;4.57;;;1.40;;
23146;SDS011;11742;53.532;-1.478;2023-12-20T04:42:26;4.15;;;1.65;;
23146;SDS011;11742;53.532;-1.478;2023-12-20T04:45:10;5.05;;;1.67;;
23146;SDS011;11742;53.532;-1.478;2023-12-20T04:47:56;4.38;;;1.38;;
23146;SDS011;11742;53.532;-1.478;2023-12-20T04:50:41;2.78;;;1.00;;
23146;SDS011;11742;53.532;-1.478;2023-12-20T04:53:25;3.05;;;1.08;;
23146;SDS011;11742;53.532;-1.478;2023-12-20T04:56:11;5.63;;;1.15;;
23146;SDS011;11742;53.532;-1.478;2023-12-20T04:58:55;3.15;;;1.05;;
23146;SDS011;11742;53.532;-1.478;2023-12-20T05:01:39;6.25;;;1.95;;
23146;SDS011;11742;53.532;-1.478;2023-12-20T05:04:24;2.35;;;1.00;;
23146;SDS011;11742;53.532;-1.478;2023-12-20T05:07:08;1.92;;;0.73;;
23146;SDS011;11742;53.532;-1.478;2023-12-20T05:09:52;3.85;;;0.95;;
23146;SDS011;11742;53.532;-1.478;2023-12-20T05:12:37;2.88;;;0.80;;
23146;SDS011;11742;53.532;-1.478;2023-12-20T05:15:22;1.75;;;0.77;;
23146;SDS011;11742;53.532;-1.478;2023-12-20T05:18:06;2.92;;;0.80;;
23146;SDS011;11742;53.532;-1.478;2023-12-20T05:20:50;3.33;;;1.00;;
23146;SDS011;11742;53.532;-1.478;2023-12-20T05:23:35;2.95;;;0.95;;
23146;SDS011;11742;53.532;-1.478;2023-12-20T05:26:19;2.65;;;0.93;;
23146;SDS011;11742;53.532;-1.478;2023-12-20T05:29:03;3.38;;;1.00;;
23146;SDS011;11742;53.532;-1.478;2023-12-20T05:31:47;1.42;;;0.70;;
23146;SDS011;11742;53.532;-1.478;2023-12-20T05:34:32;4.07;;;1.10;;
23146;SDS011;11742;53.532;-1.478;2023-12-20T05:37:16;6.22;;;0.90;;
23146;SDS011;11742;53.532;-1.478;2023-12-20T05:40:00;3.08;;;1.27;;
23146;SDS011;11742;53.532;-1.478;2023-12-20T05:42:44;1.98;;;0.90;;
23146;SDS011;11742;53.532;-1.478;2023-12-20T05:45:28;3.17;;;0.80;;
23146;SDS011;11742;53.532;-1.478;2023-12-20T05:48:13;1.98;;;0.75;;
23146;SDS011;11742;53.532;-1.478;2023-12-20T05:50:57;3.25;;;0.80;;
23146;SDS011;11742;53.532;-1.478;2023-12-20T05:53:41;2.63;;;0.70;;
23146;SDS011;11742;53.532;-1.478;2023-12-20T05:56:25;5.85;;;0.90;;
23146;SDS011;11742;53.532;-1.478;2023-12-20T05:59:09;3.85;;;1.17;;
23146;SDS011;11742;53.532;-1.478;2023-12-20T06:01:54;4.50;;;1.02;;
23146;SDS011;11742;53.532;-1.478;2023-12-20T06:04:38;1.42;;;0.73;;
23146;SDS011;11742;53.532;-1.478;2023-12-20T06:07:26;2.00;;;0.70;;
23146;SDS011;11742;53.532;-1.478;2023-12-20T06:10:11;2.63;;;0.85;;
23146;SDS011;11742;53.532;-1.478;2023-12-20T06:12:55;3.97;;;1.00;;
23146;SDS011;11742;53.532;-1.478;2023-12-20T06:15:40;6.00;;;1.25;;
23146;SDS011;11742;53.532;-1.478;2023-12-20T06:18:24;3.22;;;0.80;;
23146;SDS011;11742;53.532;-1.478;2023-12-20T06:21:08;5.85;;;1.65;;
23146;SDS011;11742;53.532;-1.478;2023-12-20T06:23:56;1.40;;;1.08;;
23146;SDS011;11742;53.532;-1.478;2023-12-20T06:26:42;1.95;;;1.05;;
23146;SDS011;11742;53.532;-1.478;2023-12-20T06:29:26;3.88;;;0.90;;
23146;SDS011;11742;53.532;-1.478;2023-12-20T06:32:11;3.15;;;1.00;;
23146;SDS011;11742;53.532;-1.478;2023-12-20T06:34:56;2.70;;;0.80;;
23146;SDS011;11742;53.532;-1.478;2023-12-20T06:37:40;0.90;;;0.60;;
23146;SDS011;11742;53.532;-1.478;2023-12-20T06:40:26;2.33;;;0.98;;
23146;SDS011;11742;53.532;-1.478;2023-12-20T06:43:11;1.48;;;0.60;;
23146;SDS011;11742;53.532;-1.478;2023-12-20T06:45:57;4.85;;;1.10;;
23146;SDS011;11742;53.532;-1.478;2023-12-20T06:48:42;4.35;;;0.98;;
23146;SDS011;11742;53.532;-1.478;2023-12-20T06:51:27;2.63;;;0.70;;
23146;SDS011;11742;53.532;-1.478;2023-12-20T06:54:11;1.45;;;0.80;;
23146;SDS011;11742;53.532;-1.478;2023-12-20T06:56:56;2.67;;;0.77;;
23146;SDS011;11742;53.532;-1.478;2023-12-20T06:59:40;6.43;;;1.00;;
23146;SDS011;11742;53.532;-1.478;2023-12-20T07:02:25;2.20;;;0.80;;
23146;SDS011;11742;53.532;-1.478;2023-12-20T07:05:09;4.28;;;0.90;;
23146;SDS011;11742;53.532;-1.478;2023-12-20T07:07:54;3.35;;;0.90;;
23146;SDS011;11742;53.532;-1.478;2023-12-20T07:10:38;2.42;;;0.80;;
23146;SDS011;11742;53.532;-1.478;2023-12-20T07:13:22;4.93;;;0.95;;
23146;SDS011;11742;53.532;-1.478;2023-12-20T07:16:06;1.90;;;0.85;;
23146;SDS011;11742;53.532;-1.478;2023-12-20T07:18:50;2.97;;;0.98;;
23146;SDS011;11742;53.532;-1.478;2023-12-20T07:21:36;2.60;;;0.90;;
23146;SDS011;11742;53.532;-1.478;2023-12-20T07:24:20;2.47;;;0.90;;
23146;SDS011;11742;53.532;-1.478;2023-12-20T07:27:05;3.13;;;0.98;;
23146;SDS011;11742;53.532;-1.478;2023-12-20T07:29:50;1.40;;;0.70;;
23146;SDS011;11742;53.532;-1.478;2023-12-20T07:32:34;3.25;;;0.95;;
23146;SDS011;11742;53.532;-1.478;2023-12-20T07:35:18;1.05;;;0.70;;
23146;SDS011;11742;53.532;-1.478;2023-12-20T07:38:02;3.58;;;1.02;;
23146;SDS011;11742;53.532;-1.478;2023-12-20T07:40:47;4.70;;;1.00;;
23146;SDS011;11742;53.532;-1.478;2023-12-20T07:43:31;3.80;;;1.00;;
23146;SDS011;11742;53.532;-1.478;2023-12-20T07:46:15;2.70;;;1.00;;
23146;SDS011;11742;53.532;-1.478;2023-12-20T07:48:59;3.95;;;1.23;;
23146;SDS011;11742;53.532;-1.478;2023-12-20T07:51:43;2.35;;;0.80;;
23146;SDS011;11742;53.532;-1.478;2023-12-20T07:54:27;2.95;;;0.88;;
23146;SDS011;11742;53.532;-1.478;2023-12-20T07:57:12;3.90;;;1.23;;
23146;SDS011;11742;53.532;-1.478;2023-12-20T07:59:56;3.10;;;0.93;;
23146;SDS011;11742;53.532;-1.478;2023-12-20T08:02:41;4.28;;;1.23;;
23146;SDS011;11742;53.532;-1.478;2023-12-20T08:05:25;4.05;;;0.73;;
23146;SDS011;11742;53.532;-1.478;2023-12-20T08:08:10;1.45;;;0.70;;
23146;SDS011;11742;53.532;-1.478;2023-12-20T08:10:54;2.78;;;0.70;;
23146;SDS011;11742;53.532;-1.478;2023-12-20T08:13:39;3.20;;;0.80;;
23146;SDS011;11742;53.532;-1.478;2023-12-20T08:16:23;1.83;;;0.70;;
23146;SDS011;11742;53.532;-1.478;2023-12-20T08:19:08;1.85;;;0.73;;
23146;SDS011;11742;53.532;-1.478;2023-12-20T08:21:52;2.83;;;0.88;;
23146;SDS011;11742;53.532;-1.478;2023-12-20T08:24:36;2.78;;;0.80;;
23146;SDS011;11742;53.532;-1.478;2023-12-20T08:27:21;4.45;;;0.93;;
23146;SDS011;11742;53.532;-1.478;2023-12-20T08:30:06;2.63;;;0.60;;
23146;SDS011;11742;53.532;-1.478;2023-12-20T08:32:52;3.33;;;0.88;;
23146;SDS011;11742;53.532;-1.478;2023-12-20T08:35:36;3.22;;;0.90;;
23146;SDS011;11742;53.532;-1.478;2023-12-20T08:38:24;3.17;;;0.73;;
23146;SDS011;11742;53.532;-1.478;2023-12-20T08:41:08;2.55;;;0.68;;
23146;SDS011;11742;53.532;-1.478;2023-12-20T08:43:53;6.03;;;1.15;;
23146;SDS011;11742;53.532;-1.478;2023-12-20T08:46:37;1.80;;;0.80;;
23146;SDS011;11742;53.532;-1.478;2023-12-20T08:49:21;4.70;;;0.88;;
23146;SDS011;11742;53.532;-1.478;2023-12-20T08:52:06;1.88;;;0.70;;
23146;SDS011;11742;53.532;-1.478;2023-12-20T08:54:50;1.13;;;0.70;;
23146;SDS011;11742;53.532;-1.478;2023-12-20T08:57:36;3.92;;;0.70;;
23146;SDS011;11742;53.532;-1.478;2023-12-20T09:00:21;5.43;;;1.48;;
23146;SDS011;11742;53.532;-1.478;2023-12-20T09:03:08;1.83;;;0.80;;
23146;SDS011;11742;53.532;-1.478;2023-12-20T09:05:52;3.63;;;1.50;;
23146;SDS011;11742;53.532;-1.478;2023-12-20T09:08:36;2.45;;;0.80;;
23146;SDS011;11742;53.532;-1.478;2023-12-20T09:11:20;2.90;;;0.80;;
23146;SDS011;11742;53.532;-1.478;2023-12-20T09:14:04;4.75;;;1.20;;
23146;SDS011;11742;53.532;-1.478;2023-12-20T09:16:49;2.22;;;0.88;;
23146;SDS011;11742;53.532;-1.478;2023-12-20T09:19:35;2.22;;;0.80;;
23146;SDS011;11742;53.532;-1.478;2023-12-20T09:22:19;1.92;;;0.82;;
23146;SDS011;11742;53.532;-1.478;2023-12-20T09:25:04;2.15;;;0.82;;
23146;SDS011;11742;53.532;-1.478;2023-12-20T09:27:48;2.03;;;0.90;;
23146;SDS011;11742;53.532;-1.478;2023-12-20T09:30:33;2.80;;;1.17;;
23146;SDS011;11742;53.532;-1.478;2023-12-20T09:33:19;2.15;;;0.80;;
23146;SDS011;11742;53.532;-1.478;2023-12-20T09:36:03;2.10;;;0.70;;
23146;SDS011;11742;53.532;-1.478;2023-12-20T09:38:48;2.85;;;0.98;;
23146;SDS011;11742;53.532;-1.478;2023-12-20T09:41:32;2.42;;;1.08;;
23146;SDS011;11742;53.532;-1.478;2023-12-20T09:44:26;3.10;;;0.85;;
23146;SDS011;11742;53.532;-1.478;2023-12-20T09:47:10;1.55;;;0.90;;
23146;SDS011;11742;53.532;-1.478;2023-12-20T09:49:55;4.32;;;0.82;;
23146;SDS011;11742;53.532;-1.478;2023-12-20T09:52:40;1.60;;;0.63;;
23146;SDS011;11742;53.532;-1.478;2023-12-20T09:55:27;2.75;;;0.73;;
23146;SDS011;11742;53.532;-1.478;2023-12-20T09:58:12;2.20;;;0.75;;
23146;SDS011;11742;53.532;-1.478;2023-12-20T10:04:19;2.72;;;0.60;;
23146;SDS011;11742;53.532;-1.478;2023-12-20T10:07:03;3.17;;;0.85;;
23146;SDS011;11742;53.532;-1.478;2023-12-20T10:09:48;1.80;;;0.57;;
23146;SDS011;11742;53.532;-1.478;2023-12-20T10:12:33;3.65;;;0.80;;
23146;SDS011;11742;53.532;-1.478;2023-12-20T10:15:18;1.70;;;0.80;;
23146;SDS011;11742;53.532;-1.478;2023-12-20T10:18:02;1.10;;;0.70;;
23146;SDS011;11742;53.532;-1.478;2023-12-20T10:20:47;6.32;;;0.70;;
23146;SDS011;11742;53.532;-1.478;2023-12-20T10:23:32;1.25;;;0.65;;
23146;SDS011;11742;53.532;-1.478;2023-12-20T10:26:19;1.50;;;0.95;;
23146;SDS011;11742;53.532;-1.478;2023-12-20T10:29:05;1.35;;;0.43;;
23146;SDS011;11742;53.532;-1.478;2023-12-20T10:31:50;1.77;;;0.70;;
23146;SDS011;11742;53.532;-1.478;2023-12-20T10:34:34;1.70;;;0.60;;
23146;SDS011;11742;53.532;-1.478;2023-12-20T10:37:18;0.77;;;0.55;;
23146;SDS011;11742;53.532;-1.478;2023-12-20T10:40:03;1.30;;;0.60;;
23146;SDS011;11742;53.532;-1.478;2023-12-20T10:42:49;1.55;;;0.50;;
23146;SDS011;11742;53.532;-1.478;2023-12-20T10:45:35;1.88;;;0.60;;
23146;SDS011;11742;53.532;-1.478;2023-12-20T10:48:19;1.30;;;0.60;;
23146;SDS011;11742;53.532;-1.478;2023-12-20T10:51:06;0.47;;;0.43;;
23146;SDS011;11742;53.532;-1.478;2023-12-20T10:53:50;1.50;;;0.70;;
23146;SDS011;11742;53.532;-1.478;2023-12-20T10:56:35;1.48;;;0.60;;
23146;SDS011;11742;53.532;-1.478;2023-12-20T10:59:22;1.42;;;0.70;;
23146;SDS011;11742;53.532;-1.478;2023-12-20T11:02:07;1.83;;;0.80;;
23146;SDS011;11742;53.532;-1.478;2023-12-20T11:05:15;1.90;;;0.90;;
23146;SDS011;11742;53.532;-1.478;2023-12-20T11:08:19;2.92;;;1.23;;
23146;SDS011;11742;53.532;-1.478;2023-12-20T11:11:12;2.15;;;1.10;;
23146;SDS011;11742;53.532;-1.478;2023-12-20T11:14:07;3.42;;;1.30;;
23146;SDS011;11742;53.532;-1.478;2023-12-20T11:17:06;2.67;;;1.30;;
23146;SDS011;11742;53.532;-1.478;2023-12-20T11:22:51;4.00;;;1.40;;
23146;SDS011;11742;53.532;-1.478;2023-12-20T11:25:47;5.38;;;1.90;;
23146;SDS011;11742;53.532;-1.478;2023-12-20T11:28:32;4.43;;;1.63;;
23146;SDS011;11742;53.532;-1.478;2023-12-20T11:31:16;5.30;;;1.92;;
23146;SDS011;11742;53.532;-1.478;2023-12-20T11:34:13;5.97;;;2.08;;
23146;SDS011;11742;53.532;-1.478;2023-12-20T11:37:02;5.75;;;1.98;;
23146;SDS011;11742;53.532;-1.478;2023-12-20T11:39:56;5.28;;;1.83;;
23146;SDS011;11742;53.532;-1.478;2023-12-20T11:42:44;6.00;;;1.88;;
23146;SDS011;11742;53.532;-1.478;2023-12-20T11:45:31;6.07;;;1.75;;
23146;SDS011;11742;53.532;-1.478;2023-12-20T11:48:15;5.45;;;1.73;;
23146;SDS011;11742;53.532;-1.478;2023-12-20T11:51:00;5.35;;;1.90;;
23146;SDS011;11742;53.532;-1.478;2023-12-20T11:53:50;4.82;;;1.55;;
23146;SDS011;11742;53.532;-1.478;2023-12-20T11:56:35;3.95;;;1.40;;
23146;SDS011;11742;53.532;-1.478;2023-12-20T11:59:20;2.85;;;1.38;;
23146;SDS011;11742;53.532;-1.478;2023-12-20T12:02:04;3.67;;;1.50;;
23146;SDS011;11742;53.532;-1.478;2023-12-20T12:04:49;4.43;;;1.35;;
23146;SDS011;11742;53.532;-1.478;2023-12-20T12:07:37;3.33;;;1.20;;
23146;SDS011;11742;53.532;-1.478;2023-12-20T12:10:21;3.17;;;1.17;;
23146;SDS011;11742;53.532;-1.478;2023-12-20T12:13:06;3.33;;;1.33;;
23146;SDS011;11742;53.532;-1.478;2023-12-20T12:15:51;2.92;;;1.20;;
23146;SDS011;11742;53.532;-1.478;2023-12-20T12:18:36;2.55;;;0.90;;
23146;SDS011;11742;53.532;-1.478;2023-12-20T12:21:20;2.50;;;1.20;;
23146;SDS011;11742;53.532;-1.478;2023-12-20T12:24:09;3.83;;;1.50;;
23146;SDS011;11742;53.532;-1.478;2023-12-20T12:26:56;3.63;;;1.08;;
23146;SDS011;11742;53.532;-1.478;2023-12-20T12:29:41;4.47;;;1.02;;
23146;SDS011;11742;53.532;-1.478;2023-12-20T12:32:47;3.85;;;1.00;;
23146;SDS011;11742;53.532;-1.478;2023-12-20T12:35:31;2.55;;;0.95;;
23146;SDS011;11742;53.532;-1.478;2023-12-20T12:38:15;2.63;;;1.10;;
23146;SDS011;11742;53.532;-1.478;2023-12-20T12:41:00;3.40;;;1.10;;
23146;SDS011;11742;53.532;-1.478;2023-12-20T12:43:44;3.97;;;1.30;;
23146;SDS011;11742;53.532;-1.478;2023-12-20T12:46:28;3.60;;;1.23;;
23146;SDS011;11742;53.532;-1.478;2023-12-20T12:49:13;3.72;;;0.88;;
23146;SDS011;11742;53.532;-1.478;2023-12-20T12:51:57;2.05;;;1.10;;
23146;SDS011;11742;53.532;-1.478;2023-12-20T12:54:42;4.03;;;1.15;;
23146;SDS011;11742;53.532;-1.478;2023-12-20T12:57:28;1.52;;;0.70;;
23146;SDS011;11742;53.532;-1.478;2023-12-20T13:00:12;2.90;;;1.20;;
23146;SDS011;11742;53.532;-1.478;2023-12-20T13:02:57;1.42;;;0.80;;
23146;SDS011;11742;53.532;-1.478;2023-12-20T13:05:41;1.83;;;0.75;;
23146;SDS011;11742;53.532;-1.478;2023-12-20T13:08:26;2.00;;;0.80;;
23146;SDS011;11742;53.532;-1.478;2023-12-20T13:11:12;2.03;;;0.68;;
23146;SDS011;11742;53.532;-1.478;2023-12-20T13:13:57;3.10;;;0.80;;
23146;SDS011;11742;53.532;-1.478;2023-12-20T13:16:41;2.35;;;0.80;;
23146;SDS011;11742;53.532;-1.478;2023-12-20T13:19:26;1.70;;;0.70;;
23146;SDS011;11742;53.532;-1.478;2023-12-20T13:22:10;3.08;;;0.82;;
23146;SDS011;11742;53.532;-1.478;2023-12-20T13:24:54;3.85;;;1.08;;
23146;SDS011;11742;53.532;-1.478;2023-12-20T13:27:38;2.17;;;0.60;;
23146;SDS011;11742;53.532;-1.478;2023-12-20T13:30:23;2.42;;;0.70;;
23146;SDS011;11742;53.532;-1.478;2023-12-20T13:33:07;1.85;;;0.50;;
23146;SDS011;11742;53.532;-1.478;2023-12-20T13:35:52;2.78;;;0.70;;
23146;SDS011;11742;53.532;-1.478;2023-12-20T13:38:37;2.25;;;0.70;;
23146;SDS011;11742;53.532;-1.478;2023-12-20T13:41:21;2.58;;;0.60;;
23146;SDS011;11742;53.532;-1.478;2023-12-20T13:44:05;1.20;;;0.50;;
23146;SDS011;11742;53.532;-1.478;2023-12-20T13:46:49;1.35;;;0.60;;
23146;SDS011;11742;53.532;-1.478;2023-12-20T13:49:33;3.17;;;0.82;;
23146;SDS011;11742;53.532;-1.478;2023-12-20T13:52:19;1.58;;;0.50;;
23146;SDS011;11742;53.532;-1.478;2023-12-20T13:55:03;1.83;;;0.60;;
23146;SDS011;11742;53.532;-1.478;2023-12-20T13:57:49;1.67;;;0.63;;
23146;SDS011;11742;53.532;-1.478;2023-12-20T14:00:33;2.65;;;0.85;;
23146;SDS011;11742;53.532;-1.478;2023-12-20T14:03:17;1.60;;;0.60;;
23146;SDS011;11742;53.532;-1.478;2023-12-20T14:06:03;1.25;;;0.45;;
23146;SDS011;11742;53.532;-1.478;2023-12-20T14:08:48;1.25;;;0.50;;
23146;SDS011;11742;53.532;-1.478;2023-12-20T14:11:32;1.48;;;0.57;;
23146;SDS011;11742;53.532;-1.478;2023-12-20T14:14:16;1.25;;;0.45;;
23146;SDS011;11742;53.532;-1.478;2023-12-20T14:17:01;1.98;;;0.50;;
23146;SDS011;11742;53.532;-1.478;2023-12-20T14:19:45;1.15;;;0.50;;
23146;SDS011;11742;53.532;-1.478;2023-12-20T14:22:29;0.43;;;0.38;;
23146;SDS011;11742;53.532;-1.478;2023-12-20T14:25:13;0.85;;;0.43;;
23146;SDS011;11742;53.532;-1.478;2023-12-20T14:27:58;1.38;;;0.50;;
23146;SDS011;11742;53.532;-1.478;2023-12-20T14:30:43;2.22;;;0.50;;
23146;SDS011;11742;53.532;-1.478;2023-12-20T14:33:28;0.95;;;0.57;;
23146;SDS011;11742;53.532;-1.478;2023-12-20T14:36:12;0.60;;;0.47;;
23146;SDS011;11742;53.532;-1.478;2023-12-20T14:38:57;0.73;;;0.50;;
23146;SDS011;11742;53.532;-1.478;2023-12-20T14:41:41;1.02;;;0.50;;
23146;SDS011;11742;53.532;-1.478;2023-12-20T14:44:26;1.48;;;0.47;;
23146;SDS011;11742;53.532;-1.478;2023-12-20T14:47:10;1.58;;;0.70;;
23146;SDS011;11742;53.532;-1.478;2023-12-20T14:49:54;1.33;;;0.70;;
23146;SDS011;11742;53.532;-1.478;2023-12-20T14:52:39;1.00;;;0.50;;
23146;SDS011;11742;53.532;-1.478;2023-12-20T14:55:22;1.55;;;0.50;;
23146;SDS011;11742;53.532;-1.478;2023-12-20T14:58:07;2.47;;;0.63;;
23146;SDS011;11742;53.532;-1.478;2023-12-20T15:00:52;0.60;;;0.50;;
23146;SDS011;11742;53.532;-1.478;2023-12-20T15:03:36;0.82;;;0.50;;
23146;SDS011;11742;53.532;-1.478;2023-12-20T15:06:20;0.65;;;0.38;;
23146;SDS011;11742;53.532;-1.478;2023-12-20T15:09:05;1.80;;;0.50;;
23146;SDS011;11742;53.532;-1.478;2023-12-20T15:11:50;1.50;;;0.50;;
23146;SDS011;11742;53.532;-1.478;2023-12-20T15:14:34;1.08;;;1.05;;
23146;SDS011;11742;53.532;-1.478;2023-12-20T15:17:18;1.10;;;0.60;;
23146;SDS011;11742;53.532;-1.478;2023-12-20T15:20:03;1.90;;;0.55;;
23146;SDS011;11742;53.532;-1.478;2023-12-20T15:22:53;0.63;;;0.50;;
23146;SDS011;11742;53.532;-1.478;2023-12-20T15:25:39;3.15;;;0.60;;
23146;SDS011;11742;53.532;-1.478;2023-12-20T15:28:24;1.65;;;0.50;;
23146;SDS011;11742;53.532;-1.478;2023-12-20T15:31:08;1.05;;;0.40;;
23146;SDS011;11742;53.532;-1.478;2023-12-20T15:33:52;1.05;;;0.50;;
23146;SDS011;11742;53.532;-1.478;2023-12-20T15:36:37;1.58;;;0.60;;
23146;SDS011;11742;53.532;-1.478;2023-12-20T15:39:22;1.27;;;0.52;;
23146;SDS011;11742;53.532;-1.478;2023-12-20T15:42:07;3.42;;;0.60;;
23146;SDS011;11742;53.532;-1.478;2023-12-20T15:44:51;0.80;;;0.40;;
23146;SDS011;11742;53.532;-1.478;2023-12-20T15:47:35;2.30;;;0.60;;
23146;SDS011;11742;53.532;-1.478;2023-12-20T15:50:20;2.25;;;0.65;;
23146;SDS011;11742;53.532;-1.478;2023-12-20T15:53:04;1.58;;;0.73;;
23146;SDS011;11742;53.532;-1.478;2023-12-20T15:55:49;2.30;;;0.63;;
23146;SDS011;11742;53.532;-1.478;2023-12-20T15:58:33;1.20;;;0.57;;
23146;SDS011;11742;53.532;-1.478;2023-12-20T16:01:17;0.40;;;0.40;;
23146;SDS011;11742;53.532;-1.478;2023-12-20T16:04:02;4.00;;;0.77;;
23146;SDS011;11742;53.532;-1.478;2023-12-20T16:06:46;2.70;;;0.70;;
23146;SDS011;11742;53.532;-1.478;2023-12-20T16:09:31;1.88;;;0.70;;
23146;SDS011;11742;53.532;-1.478;2023-12-20T16:12:16;1.35;;;0.40;;
23146;SDS011;11742;53.532;-1.478;2023-12-20T16:15:00;1.42;;;0.52;;
23146;SDS011;11742;53.532;-1.478;2023-12-20T16:17:44;0.90;;;0.50;;
23146;SDS011;11742;53.532;-1.478;2023-12-20T16:20:28;1.25;;;0.50;;
23146;SDS011;11742;53.532;-1.478;2023-12-20T16:23:13;1.33;;;0.45;;